Time;durP1;ratioP1;P1;durP2;ratioP2;P2;SDS_P1;SDS_P2;PMS_P1;PMS_P2;Temp;Humidity;BMP_temperature;BMP_pressure;BME280_temperature;BME280_humidity;BME280_pressure;Samples;Min_cycle;Max_cycle;Signal;HPM_P1;HPM_P2
2022/07/04 00:00:09;;;;;;;5.10;2.20;;;;;;;16.74;85.48;101807.03;4960292;28;20239;-73
2022/07/04 00:02:37;;;;;;;2.83;1.87;;;;;;;16.73;85.69;101813.09;4982428;28;20185;-74
2022/07/04 00:05:02;;;;;;;2.87;1.97;;;;;;;16.70;86.21;101809.56;4951824;28;20220;-74
2022/07/04 00:07:28;;;;;;;4.23;2.40;;;;;;;16.64;86.32;101804.34;4951409;29;20296;-73
2022/07/04 00:09:53;;;;;;;3.57;2.00;;;;;;;16.63;85.94;101808.63;4951149;28;20647;-73
2022/07/04 00:12:19;;;;;;;4.60;2.20;;;;;;;16.60;86.38;101806.03;4951770;28;20247;-73
2022/07/04 00:14:44;;;;;;;4.87;2.50;;;;;;;16.60;86.04;101803.44;4950509;28;20204;-73
2022/07/04 00:17:10;;;;;;;3.50;2.10;;;;;;;16.55;86.28;101806.84;4951450;29;20236;-74
2022/07/04 00:19:35;;;;;;;4.33;2.20;;;;;;;16.52;86.46;101804.19;4950894;28;20577;-73
2022/07/04 00:22:01;;;;;;;7.27;2.03;;;;;;;16.50;86.57;101809.38;4949856;29;20908;-73
2022/07/04 00:24:27;;;;;;;5.67;2.10;;;;;;;16.46;86.79;101806.72;4951495;28;20216;-73
2022/07/04 00:26:52;;;;;;;5.13;2.10;;;;;;;16.43;86.46;101809.28;4950476;28;20201;-73
2022/07/04 00:29:18;;;;;;;4.63;2.00;;;;;;;16.38;86.44;101814.38;4951407;29;20213;-73
2022/07/04 00:31:43;;;;;;;3.80;1.90;;;;;;;16.32;87.23;101808.25;4950916;29;20225;-73
2022/07/04 00:34:08;;;;;;;6.90;2.10;;;;;;;16.32;87.35;101813.44;4951439;28;20173;-73
2022/07/04 00:36:34;;;;;;;4.20;2.07;;;;;;;16.30;87.69;101812.56;4950646;28;20239;-73
2022/07/04 00:39:00;;;;;;;5.13;2.20;;;;;;;16.23;87.90;101802.97;4949725;29;20193;-73
2022/07/04 00:41:26;;;;;;;6.37;2.60;;;;;;;16.14;88.40;101800.28;4951327;28;20220;-73
2022/07/04 00:44:17;;;;;;;4.20;2.53;;;;;;;16.07;88.33;101803.66;4950816;28;20217;-73
2022/07/04 00:46:45;;;;;;;6.90;2.80;;;;;;;16.05;88.63;101795.88;4950820;28;20235;-72
2022/07/04 00:49:11;;;;;;;3.50;2.30;;;;;;;16.01;88.85;101803.56;4950564;28;20570;-72
2022/07/04 00:51:39;;;;;;;5.57;2.70;;;;;;;15.94;89.25;101791.44;4950967;28;20588;-73
2022/07/04 00:54:10;;;;;;;4.63;2.33;;;;;;;15.88;89.14;101797.38;4950780;28;20542;-73
2022/07/04 00:56:37;;;;;;;5.60;3.03;;;;;;;15.84;89.41;101787.00;4965602;28;20373;-73
2022/07/04 00:59:03;;;;;;;4.63;2.83;;;;;;;15.82;90.17;101789.56;4950478;28;20193;-74
2022/07/04 01:01:29;;;;;;;5.47;2.80;;;;;;;15.76;90.16;101789.47;4950717;28;20619;-72
2022/07/04 01:03:55;;;;;;;4.97;2.80;;;;;;;15.71;90.42;101798.84;4950705;29;20324;-73
2022/07/04 01:06:21;;;;;;;7.50;3.43;;;;;;;15.65;91.30;101795.34;4950273;28;20663;-73
2022/07/04 01:08:46;;;;;;;9.57;3.80;;;;;;;15.61;91.56;101799.56;4950607;28;20248;-75
2022/07/04 01:11:14;;;;;;;6.13;3.80;;;;;;;15.61;91.06;101799.56;4950369;28;20197;-74
2022/07/04 01:13:42;;;;;;;7.57;3.60;;;;;;;15.55;91.82;101801.19;4950883;28;20189;-74
2022/07/04 01:16:09;;;;;;;6.20;3.93;;;;;;;15.54;91.96;101799.47;4981536;28;20640;-75
2022/07/04 01:18:36;;;;;;;5.53;3.37;;;;;;;15.51;92.27;101808.03;4951446;28;20566;-75
2022/07/04 01:21:02;;;;;;;6.53;3.80;;;;;;;15.49;91.73;101808.88;4950888;28;20205;-73
2022/07/04 01:23:27;;;;;;;8.90;3.90;;;;;;;15.44;92.28;101813.09;4950364;28;20216;-72
2022/07/04 01:25:53;;;;;;;6.80;3.83;;;;;;;15.37;93.28;101812.13;4950750;28;20197;-75
2022/07/04 01:28:20;;;;;;;6.87;4.17;;;;;;;15.33;93.63;101810.31;4952835;28;20205;-74
2022/07/04 01:30:45;;;;;;;8.13;4.43;;;;;;;15.30;93.73;101806.81;4954488;28;20201;-74
2022/07/04 01:33:11;;;;;;;7.03;4.53;;;;;;;15.28;93.93;101817.13;4953530;29;20191;-73
2022/07/04 01:35:36;;;;;;;9.70;5.23;;;;;;;15.26;93.72;101813.66;4954155;28;20181;-74
2022/07/04 01:38:02;;;;;;;12.17;5.13;;;;;;;15.25;94.66;101811.91;4952439;29;20956;-73
2022/07/04 01:40:27;;;;;;;7.43;5.40;;;;;;;15.26;94.90;101818.81;4953583;29;20227;-73
2022/07/04 01:42:53;;;;;;;8.53;4.97;;;;;;;15.28;94.14;101817.13;4954018;28;20564;-73
2022/07/04 01:45:18;;;;;;;11.57;5.57;;;;;;;15.26;94.27;101818.81;4953752;28;20208;-74
2022/07/04 01:47:44;;;;;;;11.30;6.57;;;;;;;15.26;94.13;101815.34;4984778;28;20645;-73
2022/07/04 01:50:13;;;;;;;10.77;5.70;;;;;;;15.27;93.74;101815.38;4984344;28;20614;-73
2022/07/04 01:52:40;;;;;;;7.13;5.60;;;;;;;15.24;93.60;101809.31;4968782;28;20201;-74
2022/07/04 01:55:10;;;;;;;8.87;5.80;;;;;;;15.24;93.80;101811.91;4968748;28;20681;-73
2022/07/04 01:57:36;;;;;;;9.03;5.93;;;;;;;15.22;93.58;101816.13;4967056;28;20698;-73
2022/07/04 02:02:48;;;;;;;11.83;5.83;;;;;;;15.17;94.01;101816.09;4953420;29;20177;-74
2022/07/04 02:05:14;;;;;;;10.67;7.13;;;;;;;15.12;94.00;101817.72;4953861;29;20296;-73
2022/07/04 02:07:40;;;;;;;12.10;7.47;;;;;;;15.10;94.54;101815.97;4953036;29;20626;-73
2022/07/04 02:10:06;;;;;;;10.07;7.40;;;;;;;15.11;94.43;101820.28;4953122;28;20184;-73
2022/07/04 02:15:15;;;;;;;9.13;6.93;;;;;;;15.09;94.38;101816.78;4953582;29;20193;-74
2022/07/04 02:17:40;;;;;;;9.50;6.70;;;;;;;15.02;94.23;101813.25;4984005;28;20224;-75
2022/07/04 02:20:06;;;;;;;12.43;6.77;;;;;;;15.00;94.05;101821.78;4953254;28;20193;-74
2022/07/04 02:22:32;;;;;;;8.70;6.50;;;;;;;15.01;94.02;101818.38;4953640;28;20197;-74
2022/07/04 02:24:57;;;;;;;10.43;7.27;;;;;;;14.98;94.19;101829.53;4952832;28;20320;-75
2022/07/04 02:27:23;;;;;;;11.67;7.17;;;;;;;14.99;93.79;101826.09;4953033;28;20271;-75
2022/07/04 02:29:48;;;;;;;10.47;7.53;;;;;;;15.05;94.29;101818.44;4952812;28;20200;-74
2022/07/04 02:32:14;;;;;;;9.53;7.60;;;;;;;15.05;94.25;101815.88;4953010;28;20182;-74
2022/07/04 02:34:39;;;;;;;12.10;8.73;;;;;;;15.06;95.23;101829.66;4953116;28;20189;-74
2022/07/04 02:37:05;;;;;;;10.33;7.87;;;;;;;15.06;94.84;101827.06;4953127;28;20223;-73
2022/07/04 02:39:31;;;;;;;12.13;7.97;;;;;;;15.05;95.61;101826.19;4952394;28;20189;-74
2022/07/04 02:41:56;;;;;;;11.10;8.47;;;;;;;15.09;95.59;101820.25;4952566;28;20730;-74
2022/07/04 02:44:22;;;;;;;10.83;8.10;;;;;;;15.08;95.76;101826.25;4952960;28;20236;-74
2022/07/04 02:46:47;;;;;;;10.07;9.03;;;;;;;15.12;96.10;101820.31;4952230;29;20296;-74
2022/07/04 02:49:13;;;;;;;10.30;8.83;;;;;;;15.15;95.96;101820.34;4952887;29;20191;-74
2022/07/04 02:51:38;;;;;;;13.13;8.63;;;;;;;15.19;95.71;101829.00;4961194;28;20207;-74
2022/07/04 02:54:04;;;;;;;13.77;9.73;;;;;;;15.23;96.52;101820.44;4972279;28;20190;-74
2022/07/04 02:56:29;;;;;;;13.77;9.60;;;;;;;15.25;95.58;101821.38;4969685;28;20196;-75
2022/07/04 02:58:54;;;;;;;13.13;9.70;;;;;;;15.22;95.92;101824.75;4951965;28;20197;-75
2022/07/04 03:01:20;;;;;;;12.37;9.67;;;;;;;15.18;95.82;101825.56;4952806;28;20209;-74
2022/07/04 03:03:46;;;;;;;10.77;9.33;;;;;;;15.16;95.96;101819.50;4952870;28;20280;-74
2022/07/04 03:06:12;;;;;;;11.67;9.83;;;;;;;15.16;95.56;101827.25;4952664;28;20200;-75
2022/07/04 03:08:38;;;;;;;11.13;9.53;;;;;;;15.13;96.26;101822.03;4952049;28;20200;-75
2022/07/04 03:11:04;;;;;;;12.30;10.00;;;;;;;15.14;95.85;101825.50;4952070;28;20188;-74
2022/07/04 03:13:30;;;;;;;14.23;11.37;;;;;;;15.11;95.93;101830.59;4952565;28;20553;-74
2022/07/04 03:15:55;;;;;;;15.37;11.30;;;;;;;15.09;96.36;101833.13;4951973;28;20287;-74
2022/07/04 03:18:21;;;;;;;13.97;11.17;;;;;;;15.13;96.12;101844.38;4951924;28;20220;-75
2022/07/04 03:20:46;;;;;;;12.97;11.70;;;;;;;15.10;97.25;101842.63;4951901;28;20288;-74
2022/07/04 03:23:12;;;;;;;13.73;11.20;;;;;;;15.10;96.54;101844.34;4951370;28;20203;-75
2022/07/04 03:25:39;;;;;;;18.50;11.67;;;;;;;15.12;96.70;101847.81;4951739;28;20251;-74
2022/07/04 03:28:05;;;;;;;14.87;11.70;;;;;;;15.13;96.05;101847.84;4952051;28;20216;-75
2022/07/04 03:30:31;;;;;;;14.57;11.90;;;;;;;15.13;96.67;101845.25;4952146;28;20193;-74
2022/07/04 03:32:56;;;;;;;14.57;11.93;;;;;;;15.13;96.66;101846.94;4951767;28;20200;-74
2022/07/04 03:35:22;;;;;;;14.07;12.17;;;;;;;15.13;96.12;101846.94;4952090;28;20217;-74
2022/07/04 03:37:47;;;;;;;17.23;12.30;;;;;;;15.17;96.19;101851.31;4950952;29;20209;-74
2022/07/04 03:40:12;;;;;;;16.83;12.77;;;;;;;15.20;96.22;101861.72;4983392;28;20650;-75
2022/07/04 03:42:38;;;;;;;16.10;12.73;;;;;;;15.19;96.24;101862.56;4951527;28;20337;-74
2022/07/04 03:45:05;;;;;;;15.77;11.87;;;;;;;15.22;95.85;101872.91;4952034;28;20246;-74
2022/07/04 03:47:31;;;;;;;13.83;11.23;;;;;;;15.17;95.57;101880.59;4951556;28;20217;-74
2022/07/04 03:49:57;;;;;;;15.73;12.60;;;;;;;15.16;96.55;101876.28;4951526;28;20181;-73
2022/07/04 03:52:22;;;;;;;16.53;12.13;;;;;;;15.22;95.82;101878.06;4952246;28;20193;-74
2022/07/04 03:54:48;;;;;;;18.37;12.50;;;;;;;15.18;96.27;101874.59;4951388;28;20183;-73
2022/07/04 03:57:13;;;;;;;17.03;12.00;;;;;;;15.25;95.51;101873.84;4950326;28;20208;-74
2022/07/04 03:59:39;;;;;;;19.40;12.90;;;;;;;15.28;95.66;101879.06;4951415;28;20193;-73
2022/07/04 04:02:04;;;;;;;14.03;12.40;;;;;;;15.28;95.83;101881.63;4951802;28;20189;-73
2022/07/04 04:07:15;;;;;;;18.43;13.40;;;;;;;15.28;95.46;101891.97;4951794;28;20213;-74
2022/07/04 04:09:41;;;;;;;15.20;11.43;;;;;;;15.29;95.48;101893.69;4966425;28;20203;-73
2022/07/04 04:12:06;;;;;;;15.70;11.37;;;;;;;15.33;95.05;101889.47;4950833;28;20197;-73
2022/07/04 04:14:32;;;;;;;16.47;13.37;;;;;;;15.33;95.38;101882.56;4951230;29;20178;-73
2022/07/04 04:16:57;;;;;;;16.17;12.13;;;;;;;15.38;94.98;101893.03;4950513;29;20605;-73
2022/07/04 04:19:23;;;;;;;16.30;13.00;;;;;;;15.38;95.02;101893.88;4951263;28;20197;-73
2022/07/04 04:21:48;;;;;;;15.20;12.57;;;;;;;15.39;95.69;101898.22;4980699;28;20181;-73
2022/07/04 04:24:14;;;;;;;13.73;11.40;;;;;;;15.35;95.76;101898.13;4960237;28;20220;-73
2022/07/04 04:26:39;;;;;;;15.87;12.20;;;;;;;15.39;95.46;101911.13;4970835;28;20211;-74
2022/07/04 04:29:05;;;;;;;15.77;12.00;;;;;;;15.41;95.32;101911.13;4970000;28;20196;-73
2022/07/04 04:31:33;;;;;;;15.60;11.37;;;;;;;15.45;94.73;101908.63;5002068;28;20196;-74
2022/07/04 04:33:59;;;;;;;16.30;12.30;;;;;;;15.48;94.24;101910.41;4965686;28;20244;-74
2022/07/04 04:36:24;;;;;;;16.00;11.60;;;;;;;15.45;95.11;101923.25;4951857;28;20926;-73
2022/07/04 04:38:50;;;;;;;15.47;13.00;;;;;;;15.47;94.86;101919.00;4950863;29;20212;-74
2022/07/04 04:41:16;;;;;;;18.47;14.43;;;;;;;15.47;94.66;101927.59;4982284;28;20580;-74
2022/07/04 04:43:42;;;;;;;17.23;13.67;;;;;;;15.42;94.88;101926.66;4951307;29;20217;-73
2022/07/04 04:46:08;;;;;;;18.03;14.73;;;;;;;15.41;95.26;101931.78;4950909;28;20177;-72
2022/07/04 04:48:34;;;;;;;18.60;14.23;;;;;;;15.42;95.22;101938.72;4951338;28;20554;-73
2022/07/04 04:50:59;;;;;;;20.77;14.67;;;;;;;15.46;95.22;101943.03;4950995;28;20193;-72
2022/07/04 04:53:25;;;;;;;20.17;14.57;;;;;;;15.44;95.04;101937.88;4951532;28;20193;-73
2022/07/04 04:55:54;;;;;;;17.73;14.07;;;;;;;15.49;95.69;101941.41;4950956;28;20189;-73
2022/07/04 04:58:20;;;;;;;17.23;13.90;;;;;;;15.58;94.93;101944.16;4951214;28;20209;-73
2022/07/04 05:00:48;;;;;;;18.77;13.10;;;;;;;15.56;95.00;101953.56;4951460;28;20230;-73
2022/07/04 05:03:13;;;;;;;16.30;12.37;;;;;;;15.67;94.21;101946.00;4952566;29;20352;-74
2022/07/04 05:05:39;;;;;;;17.37;11.37;;;;;;;15.72;93.58;101942.66;4955427;28;20272;-74
2022/07/04 05:08:04;;;;;;;17.87;12.40;;;;;;;15.83;92.89;101937.63;4954623;28;20213;-73
2022/07/04 05:10:29;;;;;;;16.07;10.97;;;;;;;16.01;91.71;101943.09;4955269;28;20279;-74
2022/07/04 05:12:55;;;;;;;13.73;10.83;;;;;;;16.13;91.30;101938.13;4954448;29;20288;-74
2022/07/04 05:15:21;;;;;;;11.53;9.40;;;;;;;16.18;90.43;101933.88;4954904;28;20200;-74
2022/07/04 05:17:46;;;;;;;12.73;9.10;;;;;;;16.22;89.62;101931.38;4954451;28;20208;-73
2022/07/04 05:20:12;;;;;;;12.83;8.83;;;;;;;16.32;88.58;101922.91;4954459;28;20682;-74
2022/07/04 05:22:37;;;;;;;11.00;8.17;;;;;;;16.39;88.12;101916.94;4954510;28;20332;-74
2022/07/04 05:25:03;;;;;;;11.63;7.87;;;;;;;16.54;88.68;101924.91;4969639;28;20216;-74
2022/07/04 05:27:30;;;;;;;10.17;8.03;;;;;;;16.70;88.63;101928.56;4959081;28;20313;-74
2022/07/04 05:29:57;;;;;;;9.37;7.03;;;;;;;16.60;87.88;101932.78;4954359;28;20217;-74
2022/07/04 05:32:22;;;;;;;10.10;6.20;;;;;;;16.64;87.26;101931.09;4954846;28;20188;-74
2022/07/04 05:34:48;;;;;;;9.90;6.50;;;;;;;16.62;86.99;101932.81;4969145;28;20193;-74
2022/07/04 05:37:13;;;;;;;9.63;5.73;;;;;;;16.82;86.47;101936.47;4954411;28;20734;-73
2022/07/04 05:39:38;;;;;;;7.40;5.77;;;;;;;17.02;85.90;101937.56;4954400;28;20236;-74
2022/07/04 05:42:04;;;;;;;9.27;5.57;;;;;;;17.14;85.19;101935.13;4953784;28;20366;-73
2022/07/04 05:44:30;;;;;;;6.17;4.80;;;;;;;17.18;84.51;101936.88;4954949;28;20228;-74
2022/07/04 05:46:55;;;;;;;8.07;4.73;;;;;;;17.42;83.85;101934.56;4953707;29;20233;-73
2022/07/04 05:49:20;;;;;;;9.30;5.40;;;;;;;17.61;83.88;101929.56;4954119;28;20193;-74
2022/07/04 05:51:46;;;;;;;5.80;4.43;;;;;;;17.57;82.80;101922.63;4953323;28;20195;-74
2022/07/04 05:54:11;;;;;;;9.57;4.77;;;;;;;17.62;82.04;101935.59;4954111;29;20182;-74
2022/07/04 05:56:39;;;;;;;6.53;4.20;;;;;;;17.77;81.57;101925.38;4954016;28;20296;-75
2022/07/04 05:59:05;;;;;;;5.70;3.70;;;;;;;17.80;80.31;101925.38;4984331;28;20200;-74
2022/07/04 06:01:30;;;;;;;7.33;3.67;;;;;;;17.67;80.28;101924.41;4953476;28;20189;-73
2022/07/04 06:03:55;;;;;;;7.13;3.47;;;;;;;17.80;80.19;101931.44;4985138;28;20236;-73
2022/07/04 06:06:21;;;;;;;6.37;3.97;;;;;;;17.90;80.21;101933.22;4952618;29;20402;-73
2022/07/04 06:08:47;;;;;;;6.37;2.90;;;;;;;18.06;79.01;101923.84;4953469;28;20185;-72
2022/07/04 06:11:14;;;;;;;5.77;3.60;;;;;;;18.24;78.36;101922.19;4953851;29;20559;-74
2022/07/04 06:13:39;;;;;;;5.70;2.90;;;;;;;18.26;77.21;101923.09;4985094;28;20185;-75
2022/07/04 06:16:05;;;;;;;5.47;2.47;;;;;;;18.51;76.89;101917.19;4953093;29;20605;-76
2022/07/04 06:18:31;;;;;;;5.30;2.53;;;;;;;18.66;75.60;101929.38;5001557;28;20721;-74
2022/07/04 06:20:56;;;;;;;3.67;2.50;;;;;;;18.56;75.28;101925.84;4984634;28;20797;-76
2022/07/04 06:23:22;;;;;;;3.43;2.00;;;;;;;18.69;75.56;101917.25;4955526;28;20177;-75
2022/07/04 06:25:47;;;;;;;6.43;2.10;;;;;;;18.54;74.50;101924.13;4972337;28;20610;-73
2022/07/04 06:28:13;;;;;;;3.57;1.90;;;;;;;18.76;73.46;101925.94;4947804;28;20304;-74
2022/07/04 06:30:38;;;;;;;4.27;1.90;;;;;;;19.06;74.52;101921.69;4952745;28;20197;-74
2022/07/04 06:33:03;;;;;;;7.27;2.40;;;;;;;18.97;72.86;101908.69;4952710;28;20177;-73
2022/07/04 06:35:47;;;;;;;6.20;1.83;;;;;;;18.96;73.36;101904.38;4953176;29;20248;-73
2022/07/04 06:38:18;;;;;;;4.47;2.17;;;;;;;19.06;72.29;101900.03;4951434;29;20213;-73
2022/07/04 06:40:44;;;;;;;4.17;1.80;;;;;;;19.18;72.55;101915.66;4967729;28;20193;-73
2022/07/04 06:43:10;;;;;;;2.17;1.73;;;;;;;19.59;71.04;101916.59;4952538;29;20193;-73
2022/07/04 06:45:38;;;;;;;4.47;1.60;;;;;;;19.94;70.60;101907.88;4953199;28;20189;-75
2022/07/04 06:48:06;;;;;;;5.07;1.60;;;;;;;19.78;69.96;101913.09;4953244;28;20295;-73
2022/07/04 06:50:32;;;;;;;4.13;1.40;;;;;;;19.64;69.48;101915.72;4953011;28;20338;-75
2022/07/04 06:53:02;;;;;;;2.33;1.23;;;;;;;19.93;68.27;101920.88;4952995;28;20189;-75
2022/07/04 06:55:34;;;;;;;5.03;1.43;;;;;;;19.73;68.50;101920.94;4950840;29;20191;-73
2022/07/04 06:58:00;;;;;;;2.13;1.20;;;;;;;19.89;68.46;101917.44;4952454;29;20866;-76
2022/07/04 07:00:26;;;;;;;3.00;1.23;;;;;;;19.85;67.20;101928.69;4952188;28;20197;-74
2022/07/04 07:02:51;;;;;;;3.10;1.57;;;;;;;20.52;65.87;101929.44;4953127;28;20204;-75
2022/07/04 07:05:16;;;;;;;2.43;1.07;;;;;;;20.67;63.10;101922.44;4952571;28;20581;-74
2022/07/04 07:07:42;;;;;;;4.80;1.50;;;;;;;20.81;63.21;101920.63;4951902;28;20682;-74
2022/07/04 07:10:08;;;;;;;4.77;1.30;;;;;;;20.27;64.53;101917.41;4952447;29;20209;-74
2022/07/04 07:12:35;;;;;;;1.37;1.10;;;;;;;20.31;64.00;101921.72;4951946;29;20193;-74
2022/07/04 07:15:01;;;;;;;3.17;1.30;;;;;;;20.16;64.43;101917.41;4952522;28;20194;-73
2022/07/04 07:17:27;;;;;;;3.63;1.23;;;;;;;20.04;62.22;101919.16;4951755;28;20216;-75
2022/07/04 07:19:53;;;;;;;3.73;1.20;;;;;;;20.28;61.97;101919.13;4952193;28;20204;-73
2022/07/04 07:22:19;;;;;;;3.73;1.40;;;;;;;20.79;60.39;101917.19;4952389;28;20200;-73
2022/07/04 07:24:45;;;;;;;3.50;1.07;;;;;;;21.18;59.78;101919.56;4963921;28;20223;-75
2022/07/04 07:27:10;;;;;;;3.60;1.60;;;;;;;21.52;59.11;101922.81;4971585;28;20211;-75
2022/07/04 07:29:37;;;;;;;5.37;1.57;;;;;;;21.40;58.03;101925.50;4959593;28;20255;-73
2022/07/04 07:32:03;;;;;;;2.37;1.27;;;;;;;20.95;59.37;101929.28;4971635;28;20554;-73
2022/07/04 07:34:29;;;;;;;4.53;1.40;;;;;;;20.75;58.06;101933.69;4971195;28;20266;-74
2022/07/04 07:36:54;;;;;;;1.93;1.03;;;;;;;21.35;57.87;101925.53;4958279;28;20714;-76
2022/07/04 07:39:20;;;;;;;3.63;1.00;;;;;;;21.56;57.70;101927.13;4951728;28;20193;-75
2022/07/04 07:41:46;;;;;;;4.00;1.30;;;;;;;21.48;57.00;101927.19;4950704;29;20201;-74
2022/07/04 07:44:11;;;;;;;2.90;1.00;;;;;;;21.24;58.17;101931.72;4951867;28;20930;-75
2022/07/04 07:46:37;;;;;;;2.07;1.00;;;;;;;21.42;56.98;101931.59;4950616;28;20209;-75
2022/07/04 07:49:03;;;;;;;3.40;1.17;;;;;;;22.03;54.76;101922.38;4951822;28;20366;-74
2022/07/04 07:51:28;;;;;;;3.87;1.27;;;;;;;22.19;54.09;101923.91;4951667;28;20839;-74
2022/07/04 07:53:54;;;;;;;3.93;1.27;;;;;;;21.98;54.40;101930.22;4951239;28;20179;-76
2022/07/04 07:56:20;;;;;;;2.67;1.00;;;;;;;21.49;55.79;101934.13;4950272;28;20824;-75
2022/07/04 07:58:45;;;;;;;2.63;1.13;;;;;;;21.32;55.77;101922.94;4952027;28;20201;-74
2022/07/04 08:01:11;;;;;;;2.73;1.10;;;;;;;21.81;54.75;101932.16;4951521;28;20232;-74
2022/07/04 08:06:20;;;;;;;4.53;1.47;;;;;;;21.62;55.36;101927.06;4953200;29;20228;-74
2022/07/04 08:08:45;;;;;;;2.30;1.07;;;;;;;22.07;53.59;101930.13;4951772;28;20248;-74
2022/07/04 08:11:12;;;;;;;6.60;1.27;;;;;;;22.60;53.24;101931.34;4951451;29;20220;-75
2022/07/04 08:13:38;;;;;;;2.37;1.20;;;;;;;22.37;53.35;101931.56;4951342;28;20173;-75
2022/07/04 08:16:05;;;;;;;3.00;1.10;;;;;;;22.12;53.88;101930.09;4951134;28;20197;-74
2022/07/04 08:18:31;;;;;;;2.37;1.00;;;;;;;21.83;53.86;101934.75;4951201;28;20303;-74
2022/07/04 08:20:56;;;;;;;4.10;0.97;;;;;;;21.77;54.01;101929.56;4958875;28;20188;-75
2022/07/04 08:23:22;;;;;;;2.77;0.80;;;;;;;22.68;52.80;101919.03;4953117;28;20856;-75
2022/07/04 08:25:47;;;;;;;5.70;1.00;;;;;;;22.39;53.48;101927.19;4951767;29;20193;-75
2022/07/04 08:28:13;;;;;;;3.60;1.40;;;;;;;22.00;53.76;101933.69;4936437;28;20237;-75
2022/07/04 08:30:38;;;;;;;2.83;1.10;;;;;;;22.56;52.70;101921.81;4951699;28;20262;-76
2022/07/04 08:33:04;;;;;;;3.77;1.20;;;;;;;23.10;52.27;101921.91;4950874;28;20313;-75
2022/07/04 08:35:29;;;;;;;2.83;0.87;;;;;;;22.23;51.91;101921.28;4951738;28;20185;-76
2022/07/04 08:37:55;;;;;;;3.87;1.00;;;;;;;22.62;52.73;101927.81;4954775;29;20209;-75
2022/07/04 08:40:27;;;;;;;3.60;0.80;;;;;;;22.43;49.78;101928.91;4954401;28;20199;-75
2022/07/04 08:42:53;;;;;;;3.13;1.00;;;;;;;22.24;50.37;101930.84;5001335;28;20200;-75
2022/07/04 08:45:26;;;;;;;2.67;1.00;;;;;;;22.48;51.44;101934.09;4974005;28;20219;-75
2022/07/04 08:47:57;;;;;;;1.50;0.90;;;;;;;23.28;50.86;101929.53;4954921;28;20211;-75
2022/07/04 08:50:29;;;;;;;3.50;1.10;;;;;;;22.74;50.41;101938.09;4954751;28;20361;-75
2022/07/04 08:52:59;;;;;;;2.33;0.83;;;;;;;23.41;49.42;101927.56;4954778;28;20912;-74
2022/07/04 08:58:25;;;;;;;2.73;1.00;;;;;;;21.99;50.75;101934.59;4954325;29;20204;-74
2022/07/04 09:00:52;;;;;;;1.90;1.00;;;;;;;22.67;50.58;101939.06;4955537;28;20200;-74
2022/07/04 09:03:19;;;;;;;4.40;1.40;;;;;;;23.41;48.31;101932.81;4954674;28;20212;-74
2022/07/04 09:05:45;;;;;;;1.40;0.87;;;;;;;23.80;48.34;101927.78;4955930;28;20181;-74
2022/07/04 09:08:10;;;;;;;2.27;0.80;;;;;;;23.55;49.22;101938.69;4954150;29;20837;-75
2022/07/04 09:10:36;;;;;;;1.40;0.80;;;;;;;23.44;49.33;101936.22;4955019;28;20670;-76
2022/07/04 09:13:04;;;;;;;2.90;1.00;;;;;;;23.24;50.15;101938.28;4953770;29;20193;-76
2022/07/04 09:15:31;;;;;;;2.00;1.10;;;;;;;23.06;50.23;101938.53;4955003;28;20264;-74
2022/07/04 09:17:57;;;;;;;2.77;1.20;;;;;;;23.15;51.14;101935.78;4954973;28;20193;-73
2022/07/04 09:20:24;;;;;;;2.30;1.10;;;;;;;24.03;47.64;101925.66;4968923;28;20204;-74
2022/07/04 09:22:51;;;;;;;1.43;0.87;;;;;;;24.16;47.15;101924.53;4954566;28;20197;-73
2022/07/04 09:25:17;;;;;;;2.20;0.90;;;;;;;24.10;47.22;101914.19;4958202;28;20292;-74
2022/07/04 09:27:51;;;;;;;2.23;0.80;;;;;;;23.96;45.24;101915.31;4947492;28;20205;-76
2022/07/04 09:30:21;;;;;;;2.30;0.70;;;;;;;24.42;45.78;101910.94;4985067;28;20596;-75
2022/07/04 09:32:50;;;;;;;3.60;1.00;;;;;;;24.91;45.17;101912.50;4954427;28;20812;-74
2022/07/04 09:35:17;;;;;;;1.60;0.80;;;;;;;24.73;44.80;101923.38;4954245;28;20273;-74
2022/07/04 09:37:47;;;;;;;1.73;1.05;;;;;;;24.11;45.86;101915.91;4953832;28;20897;-75
2022/07/04 09:40:30;;;;;;;2.25;0.90;;;;;;;24.97;44.54;101919.38;4954639;28;20272;-76
2022/07/04 09:42:58;;;;;;;1.43;0.77;;;;;;;24.37;44.93;101911.03;4953665;28;20819;-76
2022/07/04 09:45:24;;;;;;;3.00;1.07;;;;;;;24.58;45.11;101904.50;4954261;28;20263;-75
2022/07/04 09:47:54;;;;;;;2.80;1.00;;;;;;;24.41;45.49;101910.06;4951585;28;20625;-75
2022/07/04 09:50:21;;;;;;;3.92;1.10;;;;;;;25.10;44.84;101908.56;4954300;28;20715;-74
2022/07/04 09:52:59;;;;;;;1.50;0.68;;;;;;;24.31;43.13;101915.53;4953917;29;20220;-74
2022/07/04 09:55:27;;;;;;;1.05;0.80;;;;;;;25.09;43.73;101898.97;4957456;28;20765;-76
2022/07/04 09:57:55;;;;;;;2.85;0.68;;;;;;;25.09;44.24;101906.00;4985990;28;20213;-76
2022/07/04 10:00:29;;;;;;;1.45;0.73;;;;;;;25.30;43.35;101906.38;4953534;28;20185;-72
2022/07/04 10:02:56;;;;;;;2.05;0.63;;;;;;;25.27;42.58;101910.84;4954219;28;20192;-76
2022/07/04 10:05:24;;;;;;;2.25;0.80;;;;;;;24.22;44.22;101916.56;4988650;28;20243;-76
2022/07/04 10:07:50;;;;;;;2.97;1.10;;;;;;;24.21;44.24;101908.75;4973050;28;20228;-76
2022/07/04 10:10:35;;;;;;;3.47;1.00;;;;;;;24.10;44.38;101915.94;4952959;28;20666;-75
2022/07/04 10:13:05;;;;;;;2.50;1.00;;;;;;;23.76;44.76;101913.00;4953647;28;20841;-75
2022/07/04 10:15:32;;;;;;;3.63;0.90;;;;;;;24.74;44.99;101901.53;4952456;29;20196;-75
2022/07/04 10:17:59;;;;;;;2.25;0.93;;;;;;;25.86;43.38;101895.31;4952792;28;20693;-75
2022/07/04 10:20:25;;;;;;;2.60;1.00;;;;;;;25.79;42.56;101896.38;4984062;28;20741;-76
2022/07/04 10:22:51;;;;;;;1.85;0.80;;;;;;;25.97;42.26;101901.16;4951833;29;20309;-76
2022/07/04 10:25:17;;;;;;;2.40;0.90;;;;;;;24.13;43.45;101908.88;4953306;28;20236;-75
2022/07/04 10:27:42;;;;;;;2.67;0.88;;;;;;;25.12;43.41;101906.78;4949357;29;20216;-71
2022/07/04 10:30:13;;;;;;;1.38;0.57;;;;;;;25.00;42.57;101895.72;4934278;29;20185;-77
2022/07/04 10:32:42;;;;;;;2.63;0.82;;;;;;;23.97;43.65;101915.31;4934328;29;20719;-76
2022/07/04 10:35:08;;;;;;;2.10;0.80;;;;;;;24.90;42.69;101904.66;4933560;29;20186;-76
2022/07/04 10:38:07;;;;;;;1.23;0.80;;;;;;;23.55;45.27;101902.94;4932798;29;20209;-74
2022/07/04 10:40:56;;;;;;;1.53;0.90;;;;;;;23.76;46.10;101905.16;4964591;28;20177;-77
2022/07/04 10:43:31;;;;;;;2.67;0.83;;;;;;;24.81;42.90;101903.13;4934222;29;20194;-75
2022/07/04 10:46:02;;;;;;;2.90;0.97;;;;;;;23.83;44.51;101909.41;4933896;29;20596;-76
2022/07/04 10:48:29;;;;;;;1.00;0.67;;;;;;;24.26;45.57;101907.75;4934021;29;20217;-77
2022/07/04 10:51:07;;;;;;;2.23;0.83;;;;;;;24.11;45.48;101904.56;4933910;29;20186;-76
2022/07/04 10:53:54;;;;;;;3.83;1.10;;;;;;;23.94;45.08;101907.50;4948663;28;20660;-76
2022/07/04 10:56:19;;;;;;;1.70;0.90;;;;;;;24.12;44.15;101903.69;4952642;28;20651;-76
2022/07/04 10:58:45;;;;;;;3.90;1.00;;;;;;;24.34;44.12;101903.22;4952953;28;20247;-75
2022/07/04 11:01:14;;;;;;;3.20;0.87;;;;;;;24.90;44.09;101891.56;4952442;28;20625;-76
2022/07/04 11:03:50;;;;;;;2.40;0.82;;;;;;;24.51;43.49;101901.13;4953319;28;20268;-74
2022/07/04 11:06:43;;;;;;;2.28;0.88;;;;;;;24.61;45.00;101894.84;4952990;28;20189;-76
2022/07/04 11:09:12;;;;;;;4.10;1.07;;;;;;;24.45;45.84;101888.16;4983211;28;20235;-74
2022/07/04 11:12:01;;;;;;;1.92;0.88;;;;;;;24.15;44.48;101894.00;4967605;28;20208;-75
2022/07/04 11:14:41;;;;;;;5.43;0.90;;;;;;;24.53;44.38;101888.84;4952810;28;20185;-76
2022/07/04 11:17:13;;;;;;;2.13;0.80;;;;;;;25.14;44.61;101897.09;4953672;28;20205;-77
2022/07/04 11:19:38;;;;;;;1.92;0.73;;;;;;;24.53;44.12;101893.22;4951121;29;20196;-77
2022/07/04 11:22:06;;;;;;;1.58;0.90;;;;;;;25.17;42.89;101883.94;4952720;29;20189;-74
2022/07/04 11:24:33;;;;;;;0.93;0.70;;;;;;;23.77;44.86;101888.59;4947399;28;20232;-77
2022/07/04 11:26:59;;;;;;;1.70;0.87;;;;;;;23.84;46.20;101884.13;4951745;28;20259;-75
2022/07/04 11:29:25;;;;;;;1.57;0.60;;;;;;;24.09;44.55;101886.28;4950121;29;20702;-75
2022/07/04 11:31:52;;;;;;;0.90;0.60;;;;;;;24.96;44.76;101878.34;4952078;28;20197;-74
2022/07/04 11:34:19;;;;;;;2.00;0.60;;;;;;;25.63;43.41;101875.81;4950907;29;20268;-75